createdAt,value
2018-04-12T00:00:14.422Z,986.36
2018-04-12T00:00:54.932Z,986.38
2018-04-12T00:01:35.418Z,986.34
2018-04-12T00:02:15.915Z,986.34
2018-04-12T00:02:56.405Z,986.39
2018-04-12T00:03:36.912Z,986.36
2018-04-12T00:04:17.425Z,986.33
2018-04-12T00:04:57.944Z,986.32
2018-04-12T00:05:38.463Z,986.26
2018-04-12T00:06:19.014Z,986.31
2018-04-12T00:06:59.499Z,986.31
2018-04-12T00:07:40.027Z,986.28
2018-04-12T00:08:20.546Z,986.29
2018-04-12T00:09:01.056Z,986.26
2018-04-12T00:09:41.574Z,986.24
2018-04-12T00:10:22.089Z,986.25
2018-04-12T00:11:02.597Z,986.29
2018-04-12T00:11:43.122Z,986.27
2018-04-12T00:12:23.641Z,986.25
2018-04-12T00:13:04.152Z,986.27
2018-04-12T00:13:44.673Z,986.25
2018-04-12T00:14:25.184Z,986.21
2018-04-12T00:15:05.690Z,986.23
2018-04-12T00:15:46.213Z,986.2
2018-04-12T00:16:26.728Z,986.18
2018-04-12T00:17:07.235Z,986.19
2018-04-12T00:17:47.748Z,986.23
2018-04-12T00:18:28.270Z,986.14
2018-04-12T00:19:08.798Z,986.16
2018-04-12T00:19:49.312Z,986.2
2018-04-12T00:20:29.824Z,986.23
2018-04-12T00:21:10.380Z,986.19
2018-04-12T00:21:50.896Z,986.19
2018-04-12T00:22:31.417Z,986.16
2018-04-12T00:23:12.003Z,986.15
2018-04-12T00:23:52.530Z,986.16
2018-04-12T00:24:33.035Z,986.19
2018-04-12T00:25:13.556Z,986.12
2018-04-12T00:25:54.072Z,986.16
2018-04-12T00:26:34.593Z,986.12
2018-04-12T00:27:15.120Z,986.09
2018-04-12T00:27:55.634Z,986.1
2018-04-12T00:28:36.166Z,986.09
2018-04-12T00:29:16.679Z,986.06
2018-04-12T00:29:57.245Z,986.06
2018-04-12T00:30:37.741Z,986.07
2018-04-12T00:31:18.279Z,986.08
2018-04-12T00:31:58.801Z,986.08
2018-04-12T00:32:39.315Z,986.07
2018-04-12T00:33:19.831Z,986.07
2018-04-12T00:34:00.355Z,986.05
2018-04-12T00:34:40.874Z,986.04
2018-04-12T00:35:21.390Z,986.02
2018-04-12T00:36:01.902Z,985.97
2018-04-12T00:36:42.419Z,985.99
2018-04-12T00:37:22.942Z,985.98
2018-04-12T00:38:03.451Z,985.93
2018-04-12T00:38:43.967Z,985.91
2018-04-12T00:39:24.476Z,985.88
2018-04-12T00:40:04.985Z,985.85
2018-04-12T00:40:45.506Z,985.84
2018-04-12T00:41:26.029Z,985.84
2018-04-12T00:42:06.557Z,985.88
2018-04-12T00:42:47.085Z,985.83
2018-04-12T00:43:27.621Z,985.83
2018-04-12T00:44:08.138Z,985.82
2018-04-12T00:44:48.665Z,985.85
2018-04-12T00:45:29.179Z,985.78
2018-04-12T00:46:09.691Z,985.78
2018-04-12T00:46:50.212Z,985.71
2018-04-12T00:47:30.734Z,985.72
2018-04-12T00:48:11.247Z,985.71
2018-04-12T00:48:51.766Z,985.73
2018-04-12T00:49:32.291Z,985.69
2018-04-12T00:50:12.803Z,985.67
2018-04-12T00:50:53.314Z,985.72
2018-04-12T00:51:33.824Z,985.66
2018-04-12T00:52:14.350Z,985.64
2018-04-12T00:52:54.855Z,985.64
2018-04-12T00:53:35.363Z,985.63
2018-04-12T00:54:15.891Z,985.62
2018-04-12T00:54:56.405Z,985.59
2018-04-12T00:55:36.920Z,985.62
2018-04-12T00:56:17.432Z,985.59
2018-04-12T00:56:57.951Z,985.58
2018-04-12T00:57:38.460Z,985.57
2018-04-12T00:58:18.985Z,985.55
2018-04-12T00:58:59.489Z,985.53
2018-04-12T00:59:40.015Z,985.53
2018-04-12T01:00:20.522Z,985.53
2018-04-12T01:01:01.017Z,985.5
2018-04-12T01:01:41.544Z,985.55
2018-04-12T01:02:22.052Z,985.57
2018-04-12T01:03:02.572Z,985.57
2018-04-12T01:03:43.089Z,985.54
2018-04-12T01:04:23.643Z,985.55
2018-04-12T01:05:04.158Z,985.56
2018-04-12T01:05:44.674Z,985.59
2018-04-12T01:06:25.198Z,985.58
2018-04-12T01:07:05.721Z,985.52
2018-04-12T01:07:46.236Z,985.54
2018-04-12T01:08:26.748Z,985.53
2018-04-12T01:09:07.268Z,985.52
2018-04-12T01:09:47.795Z,985.51
2018-04-12T01:10:28.327Z,985.49
2018-04-12T01:11:08.831Z,985.49
2018-04-12T01:11:49.352Z,985.46
2018-04-12T01:12:29.864Z,985.44
2018-04-12T01:13:10.388Z,985.43
2018-04-12T01:13:50.887Z,985.44
2018-04-12T01:14:31.421Z,985.46
2018-04-12T01:15:11.951Z,985.41
2018-04-12T01:15:52.453Z,985.48
2018-04-12T01:16:32.963Z,985.48
2018-04-12T01:17:13.485Z,985.49
2018-04-12T01:17:53.997Z,985.48
2018-04-12T01:18:34.508Z,985.45
2018-04-12T01:19:15.028Z,985.47
2018-04-12T01:19:55.545Z,985.49
2018-04-12T01:20:36.062Z,985.46
2018-04-12T01:21:16.577Z,985.48
2018-04-12T01:21:57.103Z,985.51
2018-04-12T01:22:37.621Z,985.43
2018-04-12T01:23:18.135Z,985.45
2018-04-12T01:23:58.654Z,985.49
2018-04-12T01:24:39.169Z,985.38
2018-04-12T01:25:19.683Z,985.4
2018-04-12T01:26:00.188Z,985.43
2018-04-12T01:26:40.702Z,985.4
2018-04-12T01:27:21.211Z,985.39
2018-04-12T01:28:01.722Z,985.4
2018-04-12T01:28:42.234Z,985.35
2018-04-12T01:29:22.757Z,985.39
2018-04-12T01:30:03.286Z,985.4
2018-04-12T01:30:43.800Z,985.38
2018-04-12T01:31:24.330Z,985.44
2018-04-12T01:32:04.843Z,985.4
2018-04-12T01:32:45.359Z,985.36
2018-04-12T01:33:25.889Z,985.37
2018-04-12T01:34:06.405Z,985.4
2018-04-12T01:34:46.905Z,985.33
2018-04-12T01:35:27.420Z,985.35
2018-04-12T01:36:07.935Z,985.32
2018-04-12T01:36:48.455Z,985.31
2018-04-12T01:37:28.974Z,985.31
2018-04-12T01:38:09.483Z,985.29
2018-04-12T01:38:50.002Z,985.34
2018-04-12T01:39:30.523Z,985.31
2018-04-12T01:40:11.054Z,985.36
2018-04-12T01:40:51.573Z,985.34
2018-04-12T01:41:32.079Z,985.33
2018-04-12T01:42:12.592Z,985.35
2018-04-12T01:42:53.108Z,985.38
2018-04-12T01:43:33.625Z,985.37
2018-04-12T01:44:14.142Z,985.35
2018-04-12T01:44:54.656Z,985.36
2018-04-12T01:45:35.183Z,985.38
2018-04-12T01:46:15.689Z,985.36
2018-04-12T01:46:56.205Z,985.33
2018-04-12T01:47:36.728Z,985.32
2018-04-12T01:48:17.260Z,985.3
2018-04-12T01:48:57.759Z,985.33
2018-04-12T01:49:38.269Z,985.3
2018-04-12T01:50:18.796Z,985.31
2018-04-12T01:50:59.314Z,985.38
2018-04-12T01:51:39.828Z,985.33
2018-04-12T01:52:20.358Z,985.33
2018-04-12T01:53:00.874Z,985.36
2018-04-12T01:53:41.392Z,985.39
2018-04-12T01:54:21.902Z,985.38
2018-04-12T01:55:02.422Z,985.41
2018-04-12T01:55:42.943Z,985.41
2018-04-12T01:56:23.459Z,985.5
2018-04-12T01:57:03.977Z,985.44
2018-04-12T01:57:44.501Z,985.46
2018-04-12T01:58:25.012Z,985.46
2018-04-12T01:59:05.526Z,985.41
2018-04-12T01:59:46.048Z,985.48
2018-04-12T02:00:26.550Z,985.49
2018-04-12T02:01:07.079Z,985.5
2018-04-12T02:01:47.612Z,985.52
2018-04-12T02:02:28.129Z,985.5
2018-04-12T02:03:08.638Z,985.53
2018-04-12T02:03:49.163Z,985.48
2018-04-12T02:04:29.684Z,985.47
2018-04-12T02:05:10.190Z,985.46
2018-04-12T02:05:50.737Z,985.47
2018-04-12T02:06:31.237Z,985.47
2018-04-12T02:07:11.752Z,985.51
2018-04-12T02:07:52.264Z,985.53
2018-04-12T02:08:32.778Z,985.49
2018-04-12T02:09:13.298Z,985.49
2018-04-12T02:09:53.831Z,985.46
2018-04-12T02:10:34.350Z,985.48
2018-04-12T02:11:14.865Z,985.49
2018-04-12T02:11:55.392Z,985.51
2018-04-12T02:12:35.922Z,985.49
2018-04-12T02:13:16.433Z,985.5
2018-04-12T02:13:56.946Z,985.51
2018-04-12T02:14:37.466Z,985.5
2018-04-12T02:15:17.999Z,985.49
2018-04-12T02:15:58.511Z,985.49
2018-04-12T02:16:39.035Z,985.5
2018-04-12T02:17:19.558Z,985.48
2018-04-12T02:18:00.085Z,985.49
2018-04-12T02:18:40.601Z,985.44
2018-04-12T02:19:21.137Z,985.43
2018-04-12T02:20:01.665Z,985.44
2018-04-12T02:20:42.178Z,985.38
2018-04-12T02:21:22.701Z,985.33
2018-04-12T02:22:03.225Z,985.34
2018-04-12T02:22:43.795Z,985.35
2018-04-12T02:23:24.265Z,985.3
2018-04-12T02:24:04.785Z,985.27
2018-04-12T02:24:45.308Z,985.26
2018-04-12T02:25:25.827Z,985.27
2018-04-12T02:26:06.356Z,985.27
2018-04-12T02:26:46.876Z,985.31
2018-04-12T02:27:27.380Z,985.28
2018-04-12T02:28:07.891Z,985.27
2018-04-12T02:28:48.437Z,985.29
2018-04-12T02:29:28.927Z,985.23
2018-04-12T02:30:09.489Z,985.23
2018-04-12T02:30:49.973Z,985.24
2018-04-12T02:31:30.478Z,985.2
2018-04-12T02:32:10.993Z,985.19
2018-04-12T02:32:51.511Z,985.17
2018-04-12T02:33:32.034Z,985.2
2018-04-12T02:34:12.542Z,985.16
2018-04-12T02:34:53.063Z,985.14
2018-04-12T02:35:33.578Z,985.14
2018-04-12T02:36:14.093Z,985.15
2018-04-12T02:36:54.619Z,985.12
2018-04-12T02:37:35.137Z,985.12
2018-04-12T02:38:15.665Z,985.08
2018-04-12T02:38:56.180Z,985.07
2018-04-12T02:39:36.695Z,985.03
2018-04-12T02:40:17.207Z,985.06
2018-04-12T02:40:57.723Z,985.04
2018-04-12T02:41:38.244Z,984.99
2018-04-12T02:42:18.820Z,984.97
2018-04-12T02:42:59.293Z,984.99
2018-04-12T02:43:39.826Z,984.92
2018-04-12T02:44:20.344Z,984.94
2018-04-12T02:45:00.860Z,984.9
2018-04-12T02:45:41.387Z,984.93
2018-04-12T02:46:21.894Z,984.93
2018-04-12T02:47:02.413Z,984.95
2018-04-12T02:47:42.928Z,984.93
2018-04-12T02:48:23.439Z,984.83
2018-04-12T02:49:03.951Z,984.81
2018-04-12T02:49:44.479Z,984.8
2018-04-12T02:50:25.003Z,984.73
2018-04-12T02:51:05.503Z,984.69
2018-04-12T02:51:46.024Z,984.65
2018-04-12T02:52:26.547Z,984.62
2018-04-12T02:53:07.060Z,984.61
2018-04-12T02:53:47.575Z,984.63
2018-04-12T02:54:28.088Z,984.62
2018-04-12T02:55:08.593Z,984.61
2018-04-12T02:55:49.112Z,984.57
2018-04-12T02:56:29.633Z,984.57
2018-04-12T02:57:10.165Z,984.54
2018-04-12T02:57:50.687Z,984.51
2018-04-12T02:58:31.183Z,984.46
2018-04-12T02:59:11.708Z,984.51
2018-04-12T02:59:52.224Z,984.47
2018-04-12T03:02:22.527Z,984.46
2018-04-12T03:03:03.052Z,984.5
2018-04-12T03:03:43.560Z,984.52
2018-04-12T03:04:24.071Z,984.59
2018-04-12T03:05:04.597Z,984.48
2018-04-12T03:05:45.107Z,984.51
2018-04-12T03:06:25.611Z,984.51
2018-04-12T03:07:06.131Z,984.56
2018-04-12T03:07:46.659Z,984.54
2018-04-12T03:08:27.167Z,984.53
2018-04-12T03:09:07.689Z,984.55
2018-04-12T03:09:48.205Z,984.56
2018-04-12T03:10:28.720Z,984.56
2018-04-12T03:11:09.229Z,984.57
2018-04-12T03:11:49.745Z,984.58
2018-04-12T03:12:30.271Z,984.6
2018-04-12T03:13:10.807Z,984.59
2018-04-12T03:13:51.333Z,984.56
2018-04-12T03:14:31.859Z,984.63
2018-04-12T03:15:12.380Z,984.61
2018-04-12T03:15:52.887Z,984.59
2018-04-12T03:16:33.430Z,984.59
2018-04-12T03:17:13.941Z,984.61
2018-04-12T03:17:54.461Z,984.56
2018-04-12T03:18:34.985Z,984.58
2018-04-12T03:19:15.503Z,984.56
2018-04-12T03:19:56.009Z,984.52
2018-04-12T03:20:36.531Z,984.54
2018-04-12T03:21:17.049Z,984.51
2018-04-12T03:21:57.563Z,984.55
2018-04-12T03:22:38.074Z,984.61
2018-04-12T03:23:18.600Z,984.6
2018-04-12T03:23:59.107Z,984.65
2018-04-12T03:24:39.635Z,984.68
2018-04-12T03:25:20.144Z,984.69
2018-04-12T03:26:00.660Z,984.65
2018-04-12T03:26:41.185Z,984.73
2018-04-12T03:27:21.715Z,984.68
2018-04-12T03:28:02.224Z,984.67
2018-04-12T03:28:42.745Z,984.68
2018-04-12T03:29:23.257Z,984.69
2018-04-12T03:30:03.774Z,984.69
2018-04-12T03:30:44.288Z,984.68
2018-04-12T03:31:24.802Z,984.77
2018-04-12T03:32:05.315Z,984.72
2018-04-12T03:32:45.827Z,984.75
2018-04-12T03:33:26.334Z,984.79
2018-04-12T03:34:06.859Z,984.82
2018-04-12T03:34:47.371Z,984.84
2018-04-12T03:35:27.902Z,984.82
2018-04-12T03:36:08.463Z,984.82
2018-04-12T03:36:48.979Z,984.84
2018-04-12T03:37:29.507Z,984.84
2018-04-12T03:38:10.015Z,984.84
2018-04-12T03:38:50.534Z,984.79
2018-04-12T03:39:31.063Z,984.82
2018-04-12T03:40:11.584Z,984.83
2018-04-12T03:40:52.101Z,984.81
2018-04-12T03:41:32.614Z,984.85
2018-04-12T03:42:13.158Z,984.85
2018-04-12T03:42:53.664Z,984.81
2018-04-12T03:43:34.180Z,984.88
2018-04-12T03:44:14.783Z,984.88
2018-04-12T03:44:55.320Z,984.88
2018-04-12T03:45:35.856Z,984.86
2018-04-12T03:46:16.374Z,984.82
2018-04-12T03:46:56.888Z,984.84
2018-04-12T03:47:37.399Z,984.78
2018-04-12T03:48:17.917Z,984.77
2018-04-12T03:50:31.266Z,984.68
2018-04-12T03:51:11.716Z,984.71
2018-04-12T03:51:52.232Z,984.67
2018-04-12T03:52:32.741Z,984.71
2018-04-12T03:53:13.261Z,984.71
2018-04-12T03:53:53.787Z,984.74
2018-04-12T03:54:34.314Z,984.76
2018-04-12T03:55:14.828Z,984.79
2018-04-12T03:55:55.354Z,984.78
2018-04-12T03:56:35.889Z,984.81
2018-04-12T03:57:16.381Z,984.85
2018-04-12T03:57:56.921Z,984.87
2018-04-12T03:58:37.443Z,984.91
2018-04-12T03:59:17.974Z,984.93
2018-04-12T03:59:58.482Z,984.92
2018-04-12T04:00:38.978Z,984.99
2018-04-12T04:01:19.503Z,984.98
2018-04-12T04:02:00.019Z,985
2018-04-12T04:02:40.525Z,985.03
2018-04-12T04:03:21.059Z,985.06
2018-04-12T04:04:01.577Z,985.09
2018-04-12T04:04:42.092Z,985.11
2018-04-12T04:05:22.605Z,985.11
2018-04-12T04:06:03.140Z,985.12
2018-04-12T04:06:43.658Z,985.08
2018-04-12T04:07:24.183Z,985.13
2018-04-12T04:08:04.733Z,985.15
2018-04-12T04:08:45.277Z,985.15
2018-04-12T04:09:25.803Z,985.18
2018-04-12T04:10:06.313Z,985.18
2018-04-12T04:10:46.827Z,985.17
2018-04-12T04:11:27.338Z,985.15
2018-04-12T04:12:07.846Z,985.14
2018-04-12T04:12:48.384Z,985.11
2018-04-12T04:13:28.905Z,985.09
2018-04-12T04:14:09.432Z,985.1
2018-04-12T04:14:49.915Z,985.12
2018-04-12T04:15:30.447Z,985.11
2018-04-12T04:16:10.993Z,985.12
2018-04-12T04:16:51.608Z,985.13
2018-04-12T04:17:32.129Z,985.12
2018-04-12T04:18:12.637Z,985.13
2018-04-12T04:18:53.159Z,985.12
2018-04-12T04:19:33.688Z,985.13
2018-04-12T04:20:14.287Z,985.13
2018-04-12T04:20:56.767Z,985.15
2018-04-12T04:21:37.263Z,985.12
2018-04-12T04:22:17.779Z,985.1
2018-04-12T04:22:58.294Z,985.16
2018-04-12T04:23:38.821Z,985.14
2018-04-12T04:24:19.345Z,985.18
2018-04-12T04:24:59.858Z,985.16
2018-04-12T04:25:40.376Z,985.16
2018-04-12T04:26:20.915Z,985.15
2018-04-12T04:27:01.451Z,985.1
2018-04-12T04:27:42.110Z,985.11
2018-04-12T04:28:22.635Z,985.12
2018-04-12T04:29:03.237Z,985.15
2018-04-12T04:29:43.678Z,985.14
2018-04-12T04:30:24.199Z,985.11
2018-04-12T04:31:04.720Z,985.13
2018-04-12T04:31:45.272Z,985.11
2018-04-12T04:32:25.790Z,985.14
2018-04-12T04:33:06.309Z,985.09
2018-04-12T04:33:46.824Z,985.12
2018-04-12T04:34:27.357Z,985.08
2018-04-12T04:35:07.876Z,985.1
2018-04-12T04:35:48.387Z,985.12
2018-04-12T04:36:28.900Z,985.11
2018-04-12T04:37:09.420Z,985.16
2018-04-12T04:37:49.929Z,985.13
2018-04-12T04:38:30.436Z,985.11
2018-04-12T04:39:10.950Z,985.14
2018-04-12T04:39:51.475Z,985.1
2018-04-12T04:40:31.990Z,985.12
2018-04-12T04:41:12.503Z,985.15
2018-04-12T04:41:53.020Z,985.1
2018-04-12T04:42:33.549Z,985.17
2018-04-12T04:43:14.070Z,985.14
2018-04-12T04:43:54.580Z,985.15
2018-04-12T04:44:35.116Z,985.19
2018-04-12T04:45:15.657Z,985.14
2018-04-12T04:45:56.177Z,985.17
2018-04-12T04:46:37.781Z,985.16
2018-04-12T04:47:18.846Z,985.2
2018-04-12T04:47:58.805Z,985.15
2018-04-12T04:48:39.313Z,985.15
2018-04-12T04:49:19.847Z,985.09
2018-04-12T04:50:00.374Z,985.13
2018-04-12T04:50:40.880Z,985.08
2018-04-12T04:51:21.386Z,985.04
2018-04-12T04:52:01.907Z,985.07
2018-04-12T04:52:42.448Z,985.03
2018-04-12T04:53:22.937Z,985.03
2018-04-12T04:54:03.449Z,985.03
2018-04-12T04:54:43.948Z,985.03
2018-04-12T04:55:24.461Z,985.02
2018-04-12T04:56:04.978Z,984.98
2018-04-12T04:56:45.473Z,984.98
2018-04-12T04:57:25.992Z,984.95
2018-04-12T04:58:06.527Z,984.94
2018-04-12T04:58:47.052Z,984.99
2018-04-12T04:59:27.564Z,984.98
2018-04-12T05:00:08.109Z,984.93
2018-04-12T05:00:48.616Z,984.96
2018-04-12T05:01:29.201Z,984.96
2018-04-12T05:02:09.659Z,984.97
2018-04-12T05:02:50.163Z,984.98
2018-04-12T05:03:30.681Z,984.99
2018-04-12T05:04:11.235Z,985.01
2018-04-12T05:04:51.762Z,985
2018-04-12T05:05:32.287Z,985.02
2018-04-12T05:06:12.803Z,985.02
2018-04-12T05:06:53.339Z,985.04
2018-04-12T05:07:33.851Z,984.98
2018-04-12T05:08:14.382Z,984.96
2018-04-12T05:08:54.907Z,984.97
2018-04-12T05:09:35.433Z,984.98
2018-04-12T05:10:15.942Z,984.97
2018-04-12T05:10:56.467Z,984.96
2018-04-12T05:11:36.968Z,984.85
2018-04-12T05:12:17.473Z,984.88
2018-04-12T05:12:57.985Z,984.91
2018-04-12T05:13:38.523Z,984.88
2018-04-12T05:14:19.065Z,984.83
2018-04-12T05:14:59.575Z,984.81
2018-04-12T05:15:40.097Z,984.87
2018-04-12T05:16:20.601Z,984.83
2018-04-12T05:17:01.114Z,984.83
2018-04-12T05:17:41.623Z,984.8
2018-04-12T05:18:22.123Z,984.87
2018-04-12T05:19:02.643Z,984.86
2018-04-12T05:19:43.168Z,984.82
2018-04-12T05:20:23.679Z,984.82
2018-04-12T05:21:04.210Z,984.88
2018-04-12T05:21:44.700Z,984.84
2018-04-12T05:22:25.243Z,984.84
2018-04-12T05:23:05.764Z,984.85
2018-04-12T05:23:46.361Z,984.88
2018-04-12T05:24:26.803Z,984.87
2018-04-12T05:25:07.310Z,984.88
2018-04-12T05:25:47.828Z,984.88
2018-04-12T05:26:28.351Z,984.88
2018-04-12T05:27:08.864Z,984.87
2018-04-12T05:27:49.397Z,984.87
2018-04-12T05:28:29.917Z,984.85
2018-04-12T05:29:10.454Z,984.9
2018-04-12T05:29:50.976Z,984.91
2018-04-12T05:30:31.467Z,984.86
2018-04-12T05:31:11.989Z,984.86
2018-04-12T05:31:52.500Z,984.89
2018-04-12T05:32:33.012Z,984.87
2018-04-12T05:33:13.526Z,984.9
2018-04-12T05:33:54.042Z,984.89
2018-04-12T05:34:34.551Z,984.93
2018-04-12T05:35:15.066Z,984.96
2018-04-12T05:35:55.681Z,984.97
2018-04-12T05:36:36.220Z,984.96
2018-04-12T05:37:17.716Z,984.98
2018-04-12T05:38:00.937Z,984.98
2018-04-12T05:38:51.533Z,984.98
2018-04-12T05:39:33.678Z,985.03
2018-04-12T05:40:18.324Z,985
2018-04-12T05:41:00.836Z,985.01
2018-04-12T05:41:53.946Z,984.99
2018-04-12T05:42:36.705Z,984.96
2018-04-12T05:43:21.354Z,985.01
2018-04-12T05:44:03.505Z,984.97
2018-04-12T05:44:48.486Z,985
2018-04-12T05:45:32.392Z,985.03
2018-04-12T05:46:16.569Z,985.05
2018-04-12T05:47:00.512Z,985.1
2018-04-12T05:47:42.802Z,985.14
2018-04-12T05:48:24.879Z,985.13
2018-04-12T05:49:04.430Z,985.14
2018-04-12T05:49:46.209Z,985.18
2018-04-12T05:50:29.860Z,985.2
2018-04-12T05:51:13.902Z,985.23
2018-04-12T05:51:58.001Z,985.29
2018-04-12T05:52:43.095Z,985.27
2018-04-12T05:53:25.159Z,985.3
2018-04-12T05:54:07.992Z,985.29
2018-04-12T05:54:49.433Z,985.28
2018-04-12T05:55:31.979Z,985.27
2018-04-12T05:56:14.712Z,985.25
2018-04-12T05:56:59.512Z,985.27
2018-04-12T05:57:43.072Z,985.29
2018-04-12T05:58:24.167Z,985.29
2018-04-12T05:59:04.647Z,985.31
2018-04-12T05:59:45.141Z,985.31
2018-04-12T06:00:25.734Z,985.31
2018-04-12T06:01:06.419Z,985.33
2018-04-12T06:01:47.052Z,985.33
2018-04-12T06:02:27.669Z,985.39
2018-04-12T06:03:08.327Z,985.35
2018-04-12T06:03:48.959Z,985.37
2018-04-12T06:04:29.531Z,985.33
2018-04-12T06:05:10.266Z,985.3
2018-04-12T06:05:50.925Z,985.34
2018-04-12T06:06:31.930Z,985.32
2018-04-12T06:07:12.545Z,985.33
2018-04-12T06:07:53.243Z,985.3
2018-04-12T06:08:33.902Z,985.29
2018-04-12T06:09:14.821Z,985.29
2018-04-12T06:09:55.414Z,985.27
2018-04-12T06:10:36.080Z,985.22
2018-04-12T06:11:16.713Z,985.23
2018-04-12T06:11:58.130Z,985.19
2018-04-12T06:14:36.454Z,985.2
2018-04-12T06:15:18.177Z,985.23
2018-04-12T06:16:02.153Z,985.25
2018-04-12T06:16:43.769Z,985.26
2018-04-12T06:17:26.180Z,985.24
2018-04-12T06:18:09.102Z,985.29
2018-04-12T06:18:50.811Z,985.3
2018-04-12T06:19:32.938Z,985.25
2018-04-12T06:22:00.500Z,985.2
2018-04-12T06:22:42.174Z,985.19
2018-04-12T06:23:25.583Z,985.17
2018-04-12T06:24:10.098Z,985.17
2018-04-12T06:24:54.209Z,985.15
2018-04-12T06:25:36.918Z,985.13
2018-04-12T06:26:18.139Z,985.13
2018-04-12T06:26:58.909Z,985.15
2018-04-12T06:27:41.456Z,985.18
2018-04-12T06:28:23.332Z,985.15
2018-04-12T06:29:06.056Z,985.17
2018-04-12T06:29:46.560Z,985.18
2018-04-12T06:30:29.026Z,985.18
2018-04-12T06:31:10.869Z,985.16
2018-04-12T06:31:53.270Z,985.13
2018-04-12T06:32:33.648Z,985.19
2018-04-12T06:33:14.205Z,985.11
2018-04-12T06:33:54.731Z,985.09
2018-04-12T06:34:35.265Z,985.08
2018-04-12T06:35:15.815Z,985.14
2018-04-12T06:35:56.535Z,985.07
2018-04-12T06:36:37.211Z,985
2018-04-12T06:37:17.651Z,984.99
2018-04-12T06:37:58.200Z,984.95
2018-04-12T06:38:38.781Z,984.93
2018-04-12T06:39:19.313Z,984.9
2018-04-12T06:39:59.894Z,984.86
2018-04-12T06:40:40.325Z,984.9
2018-04-12T06:41:20.851Z,984.83
2018-04-12T06:42:03.021Z,984.82
2018-04-12T06:42:43.542Z,984.85
2018-04-12T06:44:48.462Z,984.85
2018-04-12T06:45:28.998Z,984.82
2018-04-12T06:46:09.534Z,984.84
2018-04-12T06:46:50.071Z,984.83
2018-04-12T06:47:30.593Z,984.84
2018-04-12T06:48:11.106Z,984.85
2018-04-12T06:48:51.670Z,984.86
2018-04-12T06:49:32.195Z,984.86
2018-04-12T06:50:12.709Z,984.91
2018-04-12T06:50:53.230Z,984.97
2018-04-12T06:51:33.854Z,984.93
2018-04-12T06:52:14.268Z,984.93
2018-04-12T06:52:54.803Z,984.91
2018-04-12T06:53:35.545Z,984.9
2018-04-12T06:54:16.075Z,984.79
2018-04-12T06:54:56.748Z,984.82
2018-04-12T06:55:37.235Z,984.79
2018-04-12T06:56:17.763Z,984.82
2018-04-12T06:56:58.307Z,984.79
2018-04-12T06:57:38.829Z,984.76
2018-04-12T06:58:19.351Z,984.79
2018-04-12T06:58:59.877Z,984.73
2018-04-12T06:59:40.438Z,984.78
2018-04-12T07:00:20.897Z,984.76
2018-04-12T07:01:01.415Z,984.72
2018-04-12T07:01:41.983Z,984.74
2018-04-12T07:02:22.459Z,984.69
2018-04-12T07:03:03.086Z,984.76
2018-04-12T07:03:43.779Z,984.71
2018-04-12T07:04:24.316Z,984.73
2018-04-12T07:05:04.949Z,984.7
2018-04-12T07:05:45.411Z,984.71
2018-04-12T07:06:25.919Z,984.68
2018-04-12T07:07:07.140Z,984.66
2018-04-12T07:07:47.727Z,984.62
2018-04-12T07:08:28.407Z,984.62
2018-04-12T07:09:09.278Z,984.63
2018-04-12T07:09:49.780Z,984.57
2018-04-12T07:10:30.291Z,984.59
2018-04-12T07:12:23.399Z,984.62
2018-04-12T07:13:03.906Z,984.6
2018-04-12T07:13:44.431Z,984.59
2018-04-12T07:14:24.989Z,984.61
2018-04-12T07:15:05.503Z,984.56
2018-04-12T07:15:46.029Z,984.49
2018-04-12T07:16:26.556Z,984.47
2018-04-12T07:17:07.062Z,984.55
2018-04-12T07:17:47.629Z,984.55
2018-04-12T07:18:28.109Z,984.59
2018-04-12T07:19:08.698Z,984.59
2018-04-12T07:19:49.163Z,984.6
2018-04-12T07:20:29.679Z,984.63
2018-04-12T07:21:10.265Z,984.66
2018-04-12T07:21:50.761Z,984.67
2018-04-12T07:22:31.276Z,984.69
2018-04-12T07:23:11.792Z,984.69
2018-04-12T07:23:52.370Z,984.67
2018-04-12T07:24:32.898Z,984.66
2018-04-12T07:25:13.414Z,984.7
2018-04-12T07:25:53.976Z,984.75
2018-04-12T07:26:34.487Z,984.74
2018-04-12T07:27:15.029Z,984.69
2018-04-12T07:27:55.536Z,984.68
2018-04-12T07:28:36.086Z,984.62
2018-04-12T07:29:16.597Z,984.59
2018-04-12T07:29:57.110Z,984.69
2018-04-12T07:30:37.621Z,984.63
2018-04-12T07:31:18.149Z,984.63
2018-04-12T07:31:58.664Z,984.72
2018-04-12T07:32:39.189Z,984.66
2018-04-12T07:33:19.715Z,984.74
2018-04-12T07:34:00.226Z,984.73
2018-04-12T07:34:40.750Z,984.73
2018-04-12T07:35:21.269Z,984.7
2018-04-12T07:36:02.720Z,984.72
2018-04-12T07:36:43.194Z,984.66
2018-04-12T07:37:23.727Z,984.64
2018-04-12T07:38:04.255Z,984.68
2018-04-12T07:38:44.774Z,984.65
2018-04-12T07:39:25.609Z,984.63
2018-04-12T07:40:06.324Z,984.6
2018-04-12T07:40:46.839Z,984.58
2018-04-12T07:41:27.362Z,984.61
2018-04-12T07:42:07.885Z,984.59
2018-04-12T07:42:48.403Z,984.55
2018-04-12T07:43:28.921Z,984.61
2018-04-12T07:44:09.454Z,984.64
2018-04-12T07:44:49.999Z,984.68
2018-04-12T07:45:30.481Z,984.66
2018-04-12T07:46:11.007Z,984.72
2018-04-12T07:46:51.517Z,984.64
2018-04-12T07:47:32.044Z,984.7
2018-04-12T07:48:12.569Z,984.7
2018-04-12T07:48:53.118Z,984.73
2018-04-12T07:49:33.613Z,984.71
2018-04-12T07:50:14.146Z,984.73
2018-04-12T07:50:54.666Z,984.78
2018-04-12T07:51:35.162Z,984.77
2018-04-12T07:52:15.660Z,984.82
2018-04-12T07:52:56.173Z,984.84
2018-04-12T07:53:36.687Z,984.78
2018-04-12T07:54:17.228Z,984.81
2018-04-12T07:54:57.736Z,984.88
2018-04-12T07:55:38.313Z,984.81
2018-04-12T07:56:18.847Z,984.86
2018-04-12T07:56:59.413Z,984.89
2018-04-12T07:57:39.906Z,984.91
2018-04-12T07:58:20.414Z,984.98
2018-04-12T07:59:00.938Z,985.01
2018-04-12T07:59:41.467Z,985.02
2018-04-12T08:00:21.998Z,985.04
2018-04-12T08:01:02.518Z,985.06
2018-04-12T08:01:43.041Z,985.09
2018-04-12T08:02:23.663Z,985.12
2018-04-12T08:03:04.062Z,985.17
2018-04-12T08:03:44.566Z,985.18
2018-04-12T08:04:25.097Z,985.19
2018-04-12T08:05:05.621Z,985.23
2018-04-12T08:05:46.159Z,985.26
2018-04-12T08:06:26.683Z,985.3
2018-04-12T08:07:07.209Z,985.34
2018-04-12T08:07:47.745Z,985.33
2018-04-12T08:08:28.260Z,985.36
2018-04-12T08:09:08.863Z,985.41
2018-04-12T08:09:49.355Z,985.39
2018-04-12T08:10:29.955Z,985.4
2018-04-12T08:11:10.423Z,985.38
2018-04-12T08:11:50.930Z,985.44
2018-04-12T08:12:31.446Z,985.46
2018-04-12T08:13:11.971Z,985.47
2018-04-12T08:13:53.227Z,985.51
2018-04-12T08:14:33.733Z,985.57
2018-04-12T08:15:14.253Z,985.59
2018-04-12T08:15:54.757Z,985.61
2018-04-12T08:16:35.280Z,985.64
2018-04-12T08:17:15.835Z,985.61
2018-04-12T08:17:56.441Z,985.61
2018-04-12T08:18:36.981Z,985.62
2018-04-12T08:19:17.508Z,985.64
2018-04-12T08:19:58.025Z,985.59
2018-04-12T08:20:38.560Z,985.6
2018-04-12T08:21:19.125Z,985.66
2018-04-12T08:21:59.665Z,985.63
2018-04-12T08:22:40.186Z,985.65
2018-04-12T08:23:20.705Z,985.64
2018-04-12T08:24:01.322Z,985.61
2018-04-12T08:24:41.890Z,985.7
2018-04-12T08:25:22.409Z,985.71
2018-04-12T08:26:02.924Z,985.69
2018-04-12T08:26:43.448Z,985.73
2018-04-12T08:27:23.963Z,985.75
2018-04-12T08:28:04.793Z,985.72
2018-04-12T08:28:45.315Z,985.72
2018-04-12T08:29:25.843Z,985.75
2018-04-12T08:30:06.369Z,985.7
2018-04-12T08:30:46.904Z,985.75
2018-04-12T08:31:27.453Z,985.77
2018-04-12T08:32:07.963Z,985.78
2018-04-12T08:32:48.490Z,985.77
2018-04-12T08:33:29.022Z,985.8
2018-04-12T08:34:09.546Z,985.78
2018-04-12T08:34:50.070Z,985.86
2018-04-12T08:35:30.611Z,985.87
2018-04-12T08:36:11.149Z,985.86
2018-04-12T08:36:51.688Z,985.97
2018-04-12T08:37:32.209Z,985.9
2018-04-12T08:38:12.771Z,986.01
2018-04-12T08:38:53.297Z,985.9